sensor_id;sensor_type;location;lat;lon;timestamp;temperature;humidity
11961;DHT22;6040;49.358;11.140;2023-04-25T00:00:20;8.40;99.90
11961;DHT22;6040;49.358;11.140;2023-04-25T00:02:49;8.30;99.90
11961;DHT22;6040;49.358;11.140;2023-04-25T00:05:15;9.10;99.90
11961;DHT22;6040;49.358;11.140;2023-04-25T00:07:42;8.30;99.90
11961;DHT22;6040;49.358;11.140;2023-04-25T00:10:10;8.30;99.90
11961;DHT22;6040;49.358;11.140;2023-04-25T00:12:37;8.30;99.90
11961;DHT22;6040;49.358;11.140;2023-04-25T00:15:05;8.30;99.90
11961;DHT22;6040;49.358;11.140;2023-04-25T00:17:32;8.30;99.90
11961;DHT22;6040;49.358;11.140;2023-04-25T00:20:01;8.30;99.90
11961;DHT22;6040;49.358;11.140;2023-04-25T00:22:33;8.30;99.90
11961;DHT22;6040;49.358;11.140;2023-04-25T00:25:03;8.40;99.90
11961;DHT22;6040;49.358;11.140;2023-04-25T00:27:29;8.30;99.90
11961;DHT22;6040;49.358;11.140;2023-04-25T00:29:56;8.30;99.90
11961;DHT22;6040;49.358;11.140;2023-04-25T00:32:23;8.30;99.90
11961;DHT22;6040;49.358;11.140;2023-04-25T00:34:50;8.60;99.90
11961;DHT22;6040;49.358;11.140;2023-04-25T00:37:18;8.50;99.90
11961;DHT22;6040;49.358;11.140;2023-04-25T00:39:45;8.90;99.90
11961;DHT22;6040;49.358;11.140;2023-04-25T00:42:12;8.30;99.90
11961;DHT22;6040;49.358;11.140;2023-04-25T00:44:39;8.70;99.90
11961;DHT22;6040;49.358;11.140;2023-04-25T00:47:07;9.00;99.90
11961;DHT22;6040;49.358;11.140;2023-04-25T00:49:34;8.30;99.90
11961;DHT22;6040;49.358;11.140;2023-04-25T00:52:01;8.40;99.90
11961;DHT22;6040;49.358;11.140;2023-04-25T00:54:29;8.20;99.90
11961;DHT22;6040;49.358;11.140;2023-04-25T00:56:57;8.50;99.90
11961;DHT22;6040;49.358;11.140;2023-04-25T00:59:23;8.40;99.90
11961;DHT22;6040;49.358;11.140;2023-04-25T01:01:52;8.60;99.90
11961;DHT22;6040;49.358;11.140;2023-04-25T02:33:24;7.90;99.90
11961;DHT22;6040;49.358;11.140;2023-04-25T02:35:51;7.90;99.90
11961;DHT22;6040;49.358;11.140;2023-04-25T02:38:18;8.50;99.90
11961;DHT22;6040;49.358;11.140;2023-04-25T02:40:45;7.80;99.90
11961;DHT22;6040;49.358;11.140;2023-04-25T02:43:12;7.80;99.90
11961;DHT22;6040;49.358;11.140;2023-04-25T02:45:40;8.80;99.90
11961;DHT22;6040;49.358;11.140;2023-04-25T02:48:07;7.90;99.90
11961;DHT22;6040;49.358;11.140;2023-04-25T02:50:33;7.90;99.90
11961;DHT22;6040;49.358;11.140;2023-04-25T02:53:00;8.60;99.90
11961;DHT22;6040;49.358;11.140;2023-04-25T02:55:27;7.90;99.90
11961;DHT22;6040;49.358;11.140;2023-04-25T02:57:54;8.00;99.90
11961;DHT22;6040;49.358;11.140;2023-04-25T03:00:21;7.90;99.90
11961;DHT22;6040;49.358;11.140;2023-04-25T03:02:50;7.80;99.90
11961;DHT22;6040;49.358;11.140;2023-04-25T03:05:17;7.50;99.90
11961;DHT22;6040;49.358;11.140;2023-04-25T03:07:44;7.90;99.90
11961;DHT22;6040;49.358;11.140;2023-04-25T03:10:12;7.80;99.90
11961;DHT22;6040;49.358;11.140;2023-04-25T03:12:39;8.30;99.90
11961;DHT22;6040;49.358;11.140;2023-04-25T03:15:06;7.80;99.90
11961;DHT22;6040;49.358;11.140;2023-04-25T03:17:33;7.90;99.90
11961;DHT22;6040;49.358;11.140;2023-04-25T03:20:02;8.00;99.90
11961;DHT22;6040;49.358;11.140;2023-04-25T03:22:31;7.80;99.90
11961;DHT22;6040;49.358;11.140;2023-04-25T03:24:57;7.90;99.90
11961;DHT22;6040;49.358;11.140;2023-04-25T03:27:24;7.70;99.90
11961;DHT22;6040;49.358;11.140;2023-04-25T03:29:51;8.30;99.90
11961;DHT22;6040;49.358;11.140;2023-04-25T03:32:18;7.60;99.90
11961;DHT22;6040;49.358;11.140;2023-04-25T03:34:45;7.60;99.90
11961;DHT22;6040;49.358;11.140;2023-04-25T03:37:13;7.50;99.90
11961;DHT22;6040;49.358;11.140;2023-04-25T03:39:40;7.90;99.90
11961;DHT22;6040;49.358;11.140;2023-04-25T03:42:07;7.50;99.90
11961;DHT22;6040;49.358;11.140;2023-04-25T03:44:34;7.60;99.90
11961;DHT22;6040;49.358;11.140;2023-04-25T03:47:00;7.40;99.90
11961;DHT22;6040;49.358;11.140;2023-04-25T03:49:27;7.40;99.90
11961;DHT22;6040;49.358;11.140;2023-04-25T03:51:54;7.50;99.90
11961;DHT22;6040;49.358;11.140;2023-04-25T03:54:22;7.50;99.90
11961;DHT22;6040;49.358;11.140;2023-04-25T03:56:49;7.60;99.90
11961;DHT22;6040;49.358;11.140;2023-04-25T03:59:16;7.40;99.90
11961;DHT22;6040;49.358;11.140;2023-04-25T04:01:43;7.40;99.90
11961;DHT22;6040;49.358;11.140;2023-04-25T04:04:10;8.10;99.90
11961;DHT22;6040;49.358;11.140;2023-04-25T04:06:36;7.30;99.90
11961;DHT22;6040;49.358;11.140;2023-04-25T04:09:03;7.30;99.90
11961;DHT22;6040;49.358;11.140;2023-04-25T04:11:32;7.40;99.90
11961;DHT22;6040;49.358;11.140;2023-04-25T04:13:59;7.20;99.90
11961;DHT22;6040;49.358;11.140;2023-04-25T04:16:26;7.20;99.90
11961;DHT22;6040;49.358;11.140;2023-04-25T04:18:52;7.20;99.90
11961;DHT22;6040;49.358;11.140;2023-04-25T04:21:19;7.30;99.90
11961;DHT22;6040;49.358;11.140;2023-04-25T04:23:46;7.40;99.90
11961;DHT22;6040;49.358;11.140;2023-04-25T04:26:13;7.20;99.90
11961;DHT22;6040;49.358;11.140;2023-04-25T04:28:43;7.20;99.90
11961;DHT22;6040;49.358;11.140;2023-04-25T04:31:10;7.60;99.90
11961;DHT22;6040;49.358;11.140;2023-04-25T04:33:37;7.20;99.90
11961;DHT22;6040;49.358;11.140;2023-04-25T04:36:04;7.30;99.90
11961;DHT22;6040;49.358;11.140;2023-04-25T04:38:33;7.40;99.90
11961;DHT22;6040;49.358;11.140;2023-04-25T04:41:00;7.40;99.90
11961;DHT22;6040;49.358;11.140;2023-04-25T04:43:27;7.30;99.90
11961;DHT22;6040;49.358;11.140;2023-04-25T04:45:56;7.40;99.90
11961;DHT22;6040;49.358;11.140;2023-04-25T04:48:23;7.30;99.90
11961;DHT22;6040;49.358;11.140;2023-04-25T04:50:50;7.40;99.90
11961;DHT22;6040;49.358;11.140;2023-04-25T04:53:16;6.60;99.90
11961;DHT22;6040;49.358;11.140;2023-04-25T04:55:43;7.30;99.90
11961;DHT22;6040;49.358;11.140;2023-04-25T04:58:11;7.60;99.90
11961;DHT22;6040;49.358;11.140;2023-04-25T05:00:38;7.40;99.90
11961;DHT22;6040;49.358;11.140;2023-04-25T05:03:07;7.80;99.90
11961;DHT22;6040;49.358;11.140;2023-04-25T05:05:33;7.60;99.90
11961;DHT22;6040;49.358;11.140;2023-04-25T05:08:00;7.40;99.90
11961;DHT22;6040;49.358;11.140;2023-04-25T05:10:27;7.50;99.90
11961;DHT22;6040;49.358;11.140;2023-04-25T05:12:54;7.60;99.90
11961;DHT22;6040;49.358;11.140;2023-04-25T05:15:21;8.30;99.90
11961;DHT22;6040;49.358;11.140;2023-04-25T05:17:47;7.60;99.90
11961;DHT22;6040;49.358;11.140;2023-04-25T05:20:15;7.30;99.90
11961;DHT22;6040;49.358;11.140;2023-04-25T05:22:44;7.50;99.90
11961;DHT22;6040;49.358;11.140;2023-04-25T05:25:11;7.60;99.90
11961;DHT22;6040;49.358;11.140;2023-04-25T05:27:38;7.80;99.90
11961;DHT22;6040;49.358;11.140;2023-04-25T05:30:05;7.80;99.90
11961;DHT22;6040;49.358;11.140;2023-04-25T05:32:33;7.90;99.90
11961;DHT22;6040;49.358;11.140;2023-04-25T05:35:00;7.90;99.90
11961;DHT22;6040;49.358;11.140;2023-04-25T05:37:28;8.00;99.90
11961;DHT22;6040;49.358;11.140;2023-04-25T05:39:56;8.00;99.90
11961;DHT22;6040;49.358;11.140;2023-04-25T05:42:22;8.20;99.90
11961;DHT22;6040;49.358;11.140;2023-04-25T05:44:49;8.60;99.90
11961;DHT22;6040;49.358;11.140;2023-04-25T05:47:16;8.20;99.90
11961;DHT22;6040;49.358;11.140;2023-04-25T05:49:43;8.20;99.90
11961;DHT22;6040;49.358;11.140;2023-04-25T05:52:10;8.10;99.90
11961;DHT22;6040;49.358;11.140;2023-04-25T05:54:38;8.30;99.90
11961;DHT22;6040;49.358;11.140;2023-04-25T05:57:04;8.10;99.90
11961;DHT22;6040;49.358;11.140;2023-04-25T05:59:31;8.30;99.90
11961;DHT22;6040;49.358;11.140;2023-04-25T06:01:58;8.70;99.90
11961;DHT22;6040;49.358;11.140;2023-04-25T06:04:26;8.30;99.90
11961;DHT22;6040;49.358;11.140;2023-04-25T06:06:53;8.30;99.90
11961;DHT22;6040;49.358;11.140;2023-04-25T06:09:19;8.20;99.90
11961;DHT22;6040;49.358;11.140;2023-04-25T06:11:48;8.20;99.90
11961;DHT22;6040;49.358;11.140;2023-04-25T06:14:15;8.20;99.90
11961;DHT22;6040;49.358;11.140;2023-04-25T06:16:41;8.30;99.90
11961;DHT22;6040;49.358;11.140;2023-04-25T06:19:08;8.40;99.90
11961;DHT22;6040;49.358;11.140;2023-04-25T06:21:35;8.50;99.90
11961;DHT22;6040;49.358;11.140;2023-04-25T06:24:02;8.50;99.90
11961;DHT22;6040;49.358;11.140;2023-04-25T06:26:29;8.50;99.90
11961;DHT22;6040;49.358;11.140;2023-04-25T06:28:57;8.70;99.90
11961;DHT22;6040;49.358;11.140;2023-04-25T06:31:24;8.80;99.90
11961;DHT22;6040;49.358;11.140;2023-04-25T06:33:51;8.60;99.90
11961;DHT22;6040;49.358;11.140;2023-04-25T06:36:20;8.60;99.90
11961;DHT22;6040;49.358;11.140;2023-04-25T06:38:50;8.70;99.90
11961;DHT22;6040;49.358;11.140;2023-04-25T06:41:17;8.70;99.90
11961;DHT22;6040;49.358;11.140;2023-04-25T06:43:44;8.80;99.90
11961;DHT22;6040;49.358;11.140;2023-04-25T06:46:12;8.70;99.90
11961;DHT22;6040;49.358;11.140;2023-04-25T06:48:39;8.50;99.90
11961;DHT22;6040;49.358;11.140;2023-04-25T06:51:06;8.90;99.90
11961;DHT22;6040;49.358;11.140;2023-04-25T06:53:32;8.70;99.90
11961;DHT22;6040;49.358;11.140;2023-04-25T06:55:59;8.80;99.90
11961;DHT22;6040;49.358;11.140;2023-04-25T06:58:26;8.80;99.90
11961;DHT22;6040;49.358;11.140;2023-04-25T07:00:53;8.60;99.90
11961;DHT22;6040;49.358;11.140;2023-04-25T07:03:21;9.00;99.90
11961;DHT22;6040;49.358;11.140;2023-04-25T07:05:49;8.60;99.90
11961;DHT22;6040;49.358;11.140;2023-04-25T07:08:16;8.50;99.90
11961;DHT22;6040;49.358;11.140;2023-04-25T07:10:43;8.50;99.90
11961;DHT22;6040;49.358;11.140;2023-04-25T07:13:11;8.30;99.90
11961;DHT22;6040;49.358;11.140;2023-04-25T07:15:38;8.30;99.90
11961;DHT22;6040;49.358;11.140;2023-04-25T07:18:05;8.70;99.90
11961;DHT22;6040;49.358;11.140;2023-04-25T07:20:33;8.30;99.90
11961;DHT22;6040;49.358;11.140;2023-04-25T07:23:00;8.20;99.90
11961;DHT22;6040;49.358;11.140;2023-04-25T07:25:27;8.40;99.90
11961;DHT22;6040;49.358;11.140;2023-04-25T07:27:53;8.40;99.90
11961;DHT22;6040;49.358;11.140;2023-04-25T07:30:20;8.40;99.90
11961;DHT22;6040;49.358;11.140;2023-04-25T07:32:48;8.40;99.90
11961;DHT22;6040;49.358;11.140;2023-04-25T07:35:15;8.50;99.90
11961;DHT22;6040;49.358;11.140;2023-04-25T07:37:44;8.50;99.90
11961;DHT22;6040;49.358;11.140;2023-04-25T07:40:11;8.40;99.90
11961;DHT22;6040;49.358;11.140;2023-04-25T07:42:38;8.50;99.90
11961;DHT22;6040;49.358;11.140;2023-04-25T07:45:06;9.10;99.90
11961;DHT22;6040;49.358;11.140;2023-04-25T07:47:32;8.60;99.90
11961;DHT22;6040;49.358;11.140;2023-04-25T07:50:00;8.60;99.90
11961;DHT22;6040;49.358;11.140;2023-04-25T07:52:27;8.60;99.90
11961;DHT22;6040;49.358;11.140;2023-04-25T07:54:55;8.60;99.90
11961;DHT22;6040;49.358;11.140;2023-04-25T07:57:23;8.60;99.90
11961;DHT22;6040;49.358;11.140;2023-04-25T07:59:50;9.50;99.90
11961;DHT22;6040;49.358;11.140;2023-04-25T08:02:17;8.50;99.90
11961;DHT22;6040;49.358;11.140;2023-04-25T08:04:44;8.40;99.90
11961;DHT22;6040;49.358;11.140;2023-04-25T08:07:11;8.50;99.90
11961;DHT22;6040;49.358;11.140;2023-04-25T08:09:38;8.50;99.90
11961;DHT22;6040;49.358;11.140;2023-04-25T08:12:06;8.50;99.90
11961;DHT22;6040;49.358;11.140;2023-04-25T08:14:34;8.70;99.90
11961;DHT22;6040;49.358;11.140;2023-04-25T08:17:02;8.50;99.90
11961;DHT22;6040;49.358;11.140;2023-04-25T08:19:30;8.40;99.90
11961;DHT22;6040;49.358;11.140;2023-04-25T08:21:57;8.40;99.90
11961;DHT22;6040;49.358;11.140;2023-04-25T08:24:23;9.80;99.90
11961;DHT22;6040;49.358;11.140;2023-04-25T08:26:51;8.00;99.90
11961;DHT22;6040;49.358;11.140;2023-04-25T08:29:19;7.80;99.90
11961;DHT22;6040;49.358;11.140;2023-04-25T08:31:46;8.00;99.90
11961;DHT22;6040;49.358;11.140;2023-04-25T08:34:13;7.90;99.90
11961;DHT22;6040;49.358;11.140;2023-04-25T08:36:40;8.10;99.90
11961;DHT22;6040;49.358;11.140;2023-04-25T08:39:07;7.80;99.90
11961;DHT22;6040;49.358;11.140;2023-04-25T08:41:35;8.00;99.90
11961;DHT22;6040;49.358;11.140;2023-04-25T08:44:03;8.10;99.90
11961;DHT22;6040;49.358;11.140;2023-04-25T08:46:31;8.20;99.90
11961;DHT22;6040;49.358;11.140;2023-04-25T08:49:00;8.50;99.90
11961;DHT22;6040;49.358;11.140;2023-04-25T08:51:31;8.50;99.90
11961;DHT22;6040;49.358;11.140;2023-04-25T08:54:04;8.50;99.90
11961;DHT22;6040;49.358;11.140;2023-04-25T08:56:34;8.60;99.90
11961;DHT22;6040;49.358;11.140;2023-04-25T08:59:01;8.80;99.90
11961;DHT22;6040;49.358;11.140;2023-04-25T09:01:28;9.30;99.90
11961;DHT22;6040;49.358;11.140;2023-04-25T09:03:57;9.50;99.90
11961;DHT22;6040;49.358;11.140;2023-04-25T09:06:24;9.50;99.90
11961;DHT22;6040;49.358;11.140;2023-04-25T09:08:51;9.70;99.90
11961;DHT22;6040;49.358;11.140;2023-04-25T09:11:18;9.90;99.90
11961;DHT22;6040;49.358;11.140;2023-04-25T09:13:45;10.10;99.90
11961;DHT22;6040;49.358;11.140;2023-04-25T09:16:12;10.50;99.90
11961;DHT22;6040;49.358;11.140;2023-04-25T09:18:42;10.60;99.90
11961;DHT22;6040;49.358;11.140;2023-04-25T09:21:11;10.90;99.90
11961;DHT22;6040;49.358;11.140;2023-04-25T09:23:43;11.40;99.90
11961;DHT22;6040;49.358;11.140;2023-04-25T09:26:13;12.20;99.90
11961;DHT22;6040;49.358;11.140;2023-04-25T09:28:40;12.10;99.90
11961;DHT22;6040;49.358;11.140;2023-04-25T09:31:10;12.10;99.90
11961;DHT22;6040;49.358;11.140;2023-04-25T09:33:37;12.40;99.90
11961;DHT22;6040;49.358;11.140;2023-04-25T09:36:06;12.50;99.90
11961;DHT22;6040;49.358;11.140;2023-04-25T09:38:40;12.10;99.90
11961;DHT22;6040;49.358;11.140;2023-04-25T09:41:07;12.20;99.90
11961;DHT22;6040;49.358;11.140;2023-04-25T09:43:34;11.90;99.90
11961;DHT22;6040;49.358;11.140;2023-04-25T09:46:02;12.10;99.90
11961;DHT22;6040;49.358;11.140;2023-04-25T09:48:29;12.50;99.90
11961;DHT22;6040;49.358;11.140;2023-04-25T09:51:07;12.40;99.90
11961;DHT22;6040;49.358;11.140;2023-04-25T09:53:36;12.90;99.90
11961;DHT22;6040;49.358;11.140;2023-04-25T09:56:04;13.40;99.90
11961;DHT22;6040;49.358;11.140;2023-04-25T10:06:00;14.30;99.90
11961;DHT22;6040;49.358;11.140;2023-04-25T10:08:31;14.40;99.90
11961;DHT22;6040;49.358;11.140;2023-04-25T10:11:00;13.90;99.90
11961;DHT22;6040;49.358;11.140;2023-04-25T10:13:29;14.20;99.90
11961;DHT22;6040;49.358;11.140;2023-04-25T10:15:57;14.30;99.90
11961;DHT22;6040;49.358;11.140;2023-04-25T10:18:25;13.40;99.90
11961;DHT22;6040;49.358;11.140;2023-04-25T10:20:54;13.00;99.90
11961;DHT22;6040;49.358;11.140;2023-04-25T10:23:21;12.60;99.90
11961;DHT22;6040;49.358;11.140;2023-04-25T10:25:48;12.70;99.90
11961;DHT22;6040;49.358;11.140;2023-04-25T10:28:17;12.50;99.90
11961;DHT22;6040;49.358;11.140;2023-04-25T10:30:58;13.00;99.90
11961;DHT22;6040;49.358;11.140;2023-04-25T10:33:36;12.40;99.90
11961;DHT22;6040;49.358;11.140;2023-04-25T10:36:10;12.50;99.90
11961;DHT22;6040;49.358;11.140;2023-04-25T10:38:37;12.80;99.90
11961;DHT22;6040;49.358;11.140;2023-04-25T10:41:06;13.10;99.90
11961;DHT22;6040;49.358;11.140;2023-04-25T10:43:37;13.20;99.90
11961;DHT22;6040;49.358;11.140;2023-04-25T10:46:14;13.60;99.90
11961;DHT22;6040;49.358;11.140;2023-04-25T10:48:46;14.00;99.90
11961;DHT22;6040;49.358;11.140;2023-04-25T10:51:17;13.80;99.90
11961;DHT22;6040;49.358;11.140;2023-04-25T10:53:45;13.40;99.90
11961;DHT22;6040;49.358;11.140;2023-04-25T10:56:12;13.00;99.90
11961;DHT22;6040;49.358;11.140;2023-04-25T10:58:44;13.60;99.90
11961;DHT22;6040;49.358;11.140;2023-04-25T11:01:13;12.70;99.90
11961;DHT22;6040;49.358;11.140;2023-04-25T11:03:41;12.50;99.90
11961;DHT22;6040;49.358;11.140;2023-04-25T11:06:16;12.70;99.90
11961;DHT22;6040;49.358;11.140;2023-04-25T11:08:48;12.60;99.90
11961;DHT22;6040;49.358;11.140;2023-04-25T11:11:16;12.80;99.90
11961;DHT22;6040;49.358;11.140;2023-04-25T11:13:47;12.80;99.90
11961;DHT22;6040;49.358;11.140;2023-04-25T11:16:14;12.90;99.90
11961;DHT22;6040;49.358;11.140;2023-04-25T11:18:41;13.40;99.90
11961;DHT22;6040;49.358;11.140;2023-04-25T11:21:08;13.70;99.90
11961;DHT22;6040;49.358;11.140;2023-04-25T11:23:35;13.90;99.90
11961;DHT22;6040;49.358;11.140;2023-04-25T11:26:03;14.00;99.90
11961;DHT22;6040;49.358;11.140;2023-04-25T11:28:30;13.40;99.90
11961;DHT22;6040;49.358;11.140;2023-04-25T11:30:58;13.20;99.90
11961;DHT22;6040;49.358;11.140;2023-04-25T11:33:25;13.30;99.90
11961;DHT22;6040;49.358;11.140;2023-04-25T11:35:53;13.20;99.90
11961;DHT22;6040;49.358;11.140;2023-04-25T11:38:21;13.50;99.90
11961;DHT22;6040;49.358;11.140;2023-04-25T11:40:50;13.80;99.90
11961;DHT22;6040;49.358;11.140;2023-04-25T11:43:18;14.00;99.90
11961;DHT22;6040;49.358;11.140;2023-04-25T11:45:46;14.10;99.90
11961;DHT22;6040;49.358;11.140;2023-04-25T11:48:15;14.00;99.90
11961;DHT22;6040;49.358;11.140;2023-04-25T11:50:42;13.50;99.90
11961;DHT22;6040;49.358;11.140;2023-04-25T11:53:09;13.20;99.90
11961;DHT22;6040;49.358;11.140;2023-04-25T11:55:36;13.00;99.90
11961;DHT22;6040;49.358;11.140;2023-04-25T11:58:04;12.90;99.90
11961;DHT22;6040;49.358;11.140;2023-04-25T12:00:31;12.90;99.90
11961;DHT22;6040;49.358;11.140;2023-04-25T12:02:58;13.60;99.90
11961;DHT22;6040;49.358;11.140;2023-04-25T12:05:28;13.00;99.90
11961;DHT22;6040;49.358;11.140;2023-04-25T12:07:56;12.90;99.90
11961;DHT22;6040;49.358;11.140;2023-04-25T12:10:24;13.00;99.90
11961;DHT22;6040;49.358;11.140;2023-04-25T12:12:52;13.70;99.90
11961;DHT22;6040;49.358;11.140;2023-04-25T12:15:23;13.10;99.90
11961;DHT22;6040;49.358;11.140;2023-04-25T12:17:52;13.30;99.90
11961;DHT22;6040;49.358;11.140;2023-04-25T12:20:20;13.50;99.90
11961;DHT22;6040;49.358;11.140;2023-04-25T12:22:51;13.60;99.90
11961;DHT22;6040;49.358;11.140;2023-04-25T12:25:33;13.60;99.90
11961;DHT22;6040;49.358;11.140;2023-04-25T12:28:10;13.70;99.90
11961;DHT22;6040;49.358;11.140;2023-04-25T12:30:53;13.80;99.90
11961;DHT22;6040;49.358;11.140;2023-04-25T12:33:20;13.60;99.90
11961;DHT22;6040;49.358;11.140;2023-04-25T12:35:47;13.70;99.90
11961;DHT22;6040;49.358;11.140;2023-04-25T12:38:22;13.60;99.90
11961;DHT22;6040;49.358;11.140;2023-04-25T12:40:49;13.60;99.90
11961;DHT22;6040;49.358;11.140;2023-04-25T12:43:16;14.40;99.90
11961;DHT22;6040;49.358;11.140;2023-04-25T12:45:43;14.00;99.90
11961;DHT22;6040;49.358;11.140;2023-04-25T12:48:10;13.90;99.90
11961;DHT22;6040;49.358;11.140;2023-04-25T12:50:37;13.50;99.90
11961;DHT22;6040;49.358;11.140;2023-04-25T12:53:03;13.40;99.90
11961;DHT22;6040;49.358;11.140;2023-04-25T12:55:31;13.50;99.90
11961;DHT22;6040;49.358;11.140;2023-04-25T12:57:58;13.50;99.90
11961;DHT22;6040;49.358;11.140;2023-04-25T13:00:25;14.30;99.90
11961;DHT22;6040;49.358;11.140;2023-04-25T13:02:52;14.40;99.90
11961;DHT22;6040;49.358;11.140;2023-04-25T13:05:19;13.70;99.90
11961;DHT22;6040;49.358;11.140;2023-04-25T13:07:46;13.40;99.90
11961;DHT22;6040;49.358;11.140;2023-04-25T13:10:13;13.20;99.90
11961;DHT22;6040;49.358;11.140;2023-04-25T13:12:41;12.70;99.90
11961;DHT22;6040;49.358;11.140;2023-04-25T13:15:09;12.60;99.90
11961;DHT22;6040;49.358;11.140;2023-04-25T13:17:36;12.30;99.90
11961;DHT22;6040;49.358;11.140;2023-04-25T13:20:04;12.30;99.90
11961;DHT22;6040;49.358;11.140;2023-04-25T13:22:34;12.30;99.90
11961;DHT22;6040;49.358;11.140;2023-04-25T13:25:02;12.40;99.90
11961;DHT22;6040;49.358;11.140;2023-04-25T13:27:29;12.60;99.90
11961;DHT22;6040;49.358;11.140;2023-04-25T13:29:59;12.90;99.90
11961;DHT22;6040;49.358;11.140;2023-04-25T13:32:26;13.00;99.90
11961;DHT22;6040;49.358;11.140;2023-04-25T13:34:53;13.00;99.90
11961;DHT22;6040;49.358;11.140;2023-04-25T13:37:21;13.00;99.90
11961;DHT22;6040;49.358;11.140;2023-04-25T13:39:50;13.00;99.90
11961;DHT22;6040;49.358;11.140;2023-04-25T13:42:17;13.10;99.90
11961;DHT22;6040;49.358;11.140;2023-04-25T13:44:44;14.10;99.90
11961;DHT22;6040;49.358;11.140;2023-04-25T13:47:14;13.10;99.90
11961;DHT22;6040;49.358;11.140;2023-04-25T13:49:40;13.80;99.90
11961;DHT22;6040;49.358;11.140;2023-04-25T13:52:07;13.20;99.90
11961;DHT22;6040;49.358;11.140;2023-04-25T13:54:34;13.30;99.90
11961;DHT22;6040;49.358;11.140;2023-04-25T13:57:01;14.20;99.90
11961;DHT22;6040;49.358;11.140;2023-04-25T13:59:28;12.90;99.90
11961;DHT22;6040;49.358;11.140;2023-04-25T14:01:54;13.20;99.90
11961;DHT22;6040;49.358;11.140;2023-04-25T14:04:23;13.20;99.90
11961;DHT22;6040;49.358;11.140;2023-04-25T14:06:50;12.90;99.90
11961;DHT22;6040;49.358;11.140;2023-04-25T14:09:18;13.10;99.90
11961;DHT22;6040;49.358;11.140;2023-04-25T14:11:45;13.60;99.90
11961;DHT22;6040;49.358;11.140;2023-04-25T14:14:12;12.90;99.90
11961;DHT22;6040;49.358;11.140;2023-04-25T14:16:41;12.60;99.90
11961;DHT22;6040;49.358;11.140;2023-04-25T14:19:08;12.60;99.90
11961;DHT22;6040;49.358;11.140;2023-04-25T14:21:36;13.20;99.90
11961;DHT22;6040;49.358;11.140;2023-04-25T14:24:03;12.50;99.90
11961;DHT22;6040;49.358;11.140;2023-04-25T14:26:30;12.20;99.90
11961;DHT22;6040;49.358;11.140;2023-04-25T14:28:57;12.10;99.90
11961;DHT22;6040;49.358;11.140;2023-04-25T14:31:24;12.50;99.90
11961;DHT22;6040;49.358;11.140;2023-04-25T14:33:51;12.00;99.90
11961;DHT22;6040;49.358;11.140;2023-04-25T14:36:17;12.30;99.90
11961;DHT22;6040;49.358;11.140;2023-04-25T14:38:45;12.10;99.90
11961;DHT22;6040;49.358;11.140;2023-04-25T14:41:12;12.20;99.90
11961;DHT22;6040;49.358;11.140;2023-04-25T14:43:39;12.30;99.90
11961;DHT22;6040;49.358;11.140;2023-04-25T14:46:07;11.90;99.90
11961;DHT22;6040;49.358;11.140;2023-04-25T14:48:34;11.70;99.90
11961;DHT22;6040;49.358;11.140;2023-04-25T14:51:01;11.60;99.90
11961;DHT22;6040;49.358;11.140;2023-04-25T14:53:28;11.70;99.90
11961;DHT22;6040;49.358;11.140;2023-04-25T14:55:56;11.30;99.90
11961;DHT22;6040;49.358;11.140;2023-04-25T14:58:23;11.50;99.90
11961;DHT22;6040;49.358;11.140;2023-04-25T15:00:51;11.40;99.90
11961;DHT22;6040;49.358;11.140;2023-04-25T15:03:17;11.70;99.90
11961;DHT22;6040;49.358;11.140;2023-04-25T15:05:44;11.30;99.90
11961;DHT22;6040;49.358;11.140;2023-04-25T15:08:11;11.20;99.90
11961;DHT22;6040;49.358;11.140;2023-04-25T15:10:38;11.80;99.90
11961;DHT22;6040;49.358;11.140;2023-04-25T15:13:06;11.00;99.90
11961;DHT22;6040;49.358;11.140;2023-04-25T15:15:33;11.10;99.90
11961;DHT22;6040;49.358;11.140;2023-04-25T15:18:00;11.20;99.90
11961;DHT22;6040;49.358;11.140;2023-04-25T15:20:27;11.30;99.90
11961;DHT22;6040;49.358;11.140;2023-04-25T15:22:54;11.50;99.90
11961;DHT22;6040;49.358;11.140;2023-04-25T15:25:22;11.40;99.90
11961;DHT22;6040;49.358;11.140;2023-04-25T15:27:48;11.10;99.90
11961;DHT22;6040;49.358;11.140;2023-04-25T15:30:18;11.20;99.90
11961;DHT22;6040;49.358;11.140;2023-04-25T15:32:45;11.30;99.90
11961;DHT22;6040;49.358;11.140;2023-04-25T15:35:13;11.30;99.90
11961;DHT22;6040;49.358;11.140;2023-04-25T15:37:40;11.40;99.90
11961;DHT22;6040;49.358;11.140;2023-04-25T15:40:09;11.40;99.90
11961;DHT22;6040;49.358;11.140;2023-04-25T15:42:38;11.50;99.90
11961;DHT22;6040;49.358;11.140;2023-04-25T15:45:06;11.60;99.90
11961;DHT22;6040;49.358;11.140;2023-04-25T15:47:36;11.50;99.90
11961;DHT22;6040;49.358;11.140;2023-04-25T15:50:05;11.50;99.90
11961;DHT22;6040;49.358;11.140;2023-04-25T15:52:33;11.30;99.90
11961;DHT22;6040;49.358;11.140;2023-04-25T15:55:00;11.30;99.90
11961;DHT22;6040;49.358;11.140;2023-04-25T15:57:27;11.30;99.90
11961;DHT22;6040;49.358;11.140;2023-04-25T15:59:53;10.60;99.90
11961;DHT22;6040;49.358;11.140;2023-04-25T16:02:21;11.50;99.90
11961;DHT22;6040;49.358;11.140;2023-04-25T16:04:49;11.70;99.90
11961;DHT22;6040;49.358;11.140;2023-04-25T16:07:16;11.90;99.90
11961;DHT22;6040;49.358;11.140;2023-04-25T16:09:43;12.10;99.90
11961;DHT22;6040;49.358;11.140;2023-04-25T16:12:11;12.10;99.90
11961;DHT22;6040;49.358;11.140;2023-04-25T16:14:38;12.00;99.90
11961;DHT22;6040;49.358;11.140;2023-04-25T16:17:05;11.50;99.90
11961;DHT22;6040;49.358;11.140;2023-04-25T16:19:31;11.90;99.90
11961;DHT22;6040;49.358;11.140;2023-04-25T16:21:59;11.50;99.90
11961;DHT22;6040;49.358;11.140;2023-04-25T16:24:27;11.40;99.90
11961;DHT22;6040;49.358;11.140;2023-04-25T16:26:54;11.10;99.90
11961;DHT22;6040;49.358;11.140;2023-04-25T16:29:20;10.90;99.90
11961;DHT22;6040;49.358;11.140;2023-04-25T16:31:47;10.80;99.90
11961;DHT22;6040;49.358;11.140;2023-04-25T16:34:14;10.70;99.90
11961;DHT22;6040;49.358;11.140;2023-04-25T16:36:41;11.50;99.90
11961;DHT22;6040;49.358;11.140;2023-04-25T16:39:09;10.80;99.90
11961;DHT22;6040;49.358;11.140;2023-04-25T16:41:36;10.70;99.90
11961;DHT22;6040;49.358;11.140;2023-04-25T16:44:03;10.60;99.90
11961;DHT22;6040;49.358;11.140;2023-04-25T16:46:31;10.80;99.90
11961;DHT22;6040;49.358;11.140;2023-04-25T16:48:58;10.60;99.90
11961;DHT22;6040;49.358;11.140;2023-04-25T16:51:25;10.60;99.90
11961;DHT22;6040;49.358;11.140;2023-04-25T16:53:52;10.70;99.90
11961;DHT22;6040;49.358;11.140;2023-04-25T16:56:21;10.60;99.90
11961;DHT22;6040;49.358;11.140;2023-04-25T16:58:49;10.90;99.90
11961;DHT22;6040;49.358;11.140;2023-04-25T17:01:16;10.60;99.90
11961;DHT22;6040;49.358;11.140;2023-04-25T17:03:45;11.00;99.90
11961;DHT22;6040;49.358;11.140;2023-04-25T17:06:12;10.70;99.90
11961;DHT22;6040;49.358;11.140;2023-04-25T17:08:39;10.70;99.90
11961;DHT22;6040;49.358;11.140;2023-04-25T17:11:06;10.70;99.90
11961;DHT22;6040;49.358;11.140;2023-04-25T17:13:35;10.60;99.90
11961;DHT22;6040;49.358;11.140;2023-04-25T17:16:03;10.50;99.90